sensor_id;sensor_type;location;lat;lon;timestamp;temperature;humidity
43185;DHT22;28803;52.308;19.096;2023-06-01T00:02:15;10.60;88.20
43185;DHT22;28803;52.308;19.096;2023-06-01T00:04:42;10.60;88.80
43185;DHT22;28803;52.308;19.096;2023-06-01T00:07:10;10.60;89.20
43185;DHT22;28803;52.308;19.096;2023-06-01T00:09:37;10.50;89.70
43185;DHT22;28803;52.308;19.096;2023-06-01T00:12:05;10.50;89.90
43185;DHT22;28803;52.308;19.096;2023-06-01T00:14:33;10.60;89.90
43185;DHT22;28803;52.308;19.096;2023-06-01T00:17:00;10.60;89.70
43185;DHT22;28803;52.308;19.096;2023-06-01T00:19:27;10.60;90.00
43185;DHT22;28803;52.308;19.096;2023-06-01T00:21:56;10.60;90.10
43185;DHT22;28803;52.308;19.096;2023-06-01T00:24:24;10.60;90.30
43185;DHT22;28803;52.308;19.096;2023-06-01T00:26:53;10.50;90.60
43185;DHT22;28803;52.308;19.096;2023-06-01T00:29:20;10.50;90.90
43185;DHT22;28803;52.308;19.096;2023-06-01T00:31:50;10.50;91.20
43185;DHT22;28803;52.308;19.096;2023-06-01T00:34:17;10.50;91.50
43185;DHT22;28803;52.308;19.096;2023-06-01T00:36:48;10.50;91.50
43185;DHT22;28803;52.308;19.096;2023-06-01T00:39:15;10.60;91.70
43185;DHT22;28803;52.308;19.096;2023-06-01T00:41:42;10.60;91.80
43185;DHT22;28803;52.308;19.096;2023-06-01T00:44:09;10.60;92.00
43185;DHT22;28803;52.308;19.096;2023-06-01T00:46:39;10.70;91.80
43185;DHT22;28803;52.308;19.096;2023-06-01T00:49:07;10.70;92.00
43185;DHT22;28803;52.308;19.096;2023-06-01T00:51:34;10.60;92.00
43185;DHT22;28803;52.308;19.096;2023-06-01T00:54:02;10.70;92.20
43185;DHT22;28803;52.308;19.096;2023-06-01T00:56:31;10.70;92.30
43185;DHT22;28803;52.308;19.096;2023-06-01T00:59:00;10.60;92.50
43185;DHT22;28803;52.308;19.096;2023-06-01T01:01:27;10.60;92.70
43185;DHT22;28803;52.308;19.096;2023-06-01T01:03:54;10.60;93.10
43185;DHT22;28803;52.308;19.096;2023-06-01T01:12:13;10.50;94.00
43185;DHT22;28803;52.308;19.096;2023-06-01T01:15:07;10.50;94.10
43185;DHT22;28803;52.308;19.096;2023-06-01T01:17:40;10.50;94.30
43185;DHT22;28803;52.308;19.096;2023-06-01T01:20:23;10.50;94.60
43185;DHT22;28803;52.308;19.096;2023-06-01T01:28:53;10.30;95.30
43185;DHT22;28803;52.308;19.096;2023-06-01T01:31:24;10.30;95.60
43185;DHT22;28803;52.308;19.096;2023-06-01T01:33:55;10.20;96.10
43185;DHT22;28803;52.308;19.096;2023-06-01T01:36:24;10.20;96.30
43185;DHT22;28803;52.308;19.096;2023-06-01T01:38:51;10.20;96.60
43185;DHT22;28803;52.308;19.096;2023-06-01T01:41:19;10.20;96.80
43185;DHT22;28803;52.308;19.096;2023-06-01T01:43:49;10.20;97.00
43185;DHT22;28803;52.308;19.096;2023-06-01T01:51:40;10.10;97.70
43185;DHT22;28803;52.308;19.096;2023-06-01T01:54:10;10.10;97.10
43185;DHT22;28803;52.308;19.096;2023-06-01T01:56:37;10.00;94.90
43185;DHT22;28803;52.308;19.096;2023-06-01T01:59:05;9.90;99.90
43185;DHT22;28803;52.308;19.096;2023-06-01T02:01:32;10.00;99.90
43185;DHT22;28803;52.308;19.096;2023-06-01T02:04:03;9.90;99.90
43185;DHT22;28803;52.308;19.096;2023-06-01T02:06:31;9.90;99.90
43185;DHT22;28803;52.308;19.096;2023-06-01T02:09:00;9.90;99.90
43185;DHT22;28803;52.308;19.096;2023-06-01T02:11:27;9.90;99.90
43185;DHT22;28803;52.308;19.096;2023-06-01T02:13:54;10.00;99.90
43185;DHT22;28803;52.308;19.096;2023-06-01T02:16:21;9.90;99.90
43185;DHT22;28803;52.308;19.096;2023-06-01T02:18:49;9.90;99.90
43185;DHT22;28803;52.308;19.096;2023-06-01T02:21:17;9.90;99.90
43185;DHT22;28803;52.308;19.096;2023-06-01T02:23:44;9.90;99.90
43185;DHT22;28803;52.308;19.096;2023-06-01T02:26:11;9.90;99.90
43185;DHT22;28803;52.308;19.096;2023-06-01T02:28:39;9.80;99.90
43185;DHT22;28803;52.308;19.096;2023-06-01T02:31:07;9.70;99.90
43185;DHT22;28803;52.308;19.096;2023-06-01T02:33:35;9.70;99.90
43185;DHT22;28803;52.308;19.096;2023-06-01T02:36:02;9.60;99.90
43185;DHT22;28803;52.308;19.096;2023-06-01T02:38:29;9.50;1.00
43185;DHT22;28803;52.308;19.096;2023-06-01T02:40:56;9.50;1.00
43185;DHT22;28803;52.308;19.096;2023-06-01T02:43:24;9.50;1.00
43185;DHT22;28803;52.308;19.096;2023-06-01T02:45:51;9.50;1.00
43185;DHT22;28803;52.308;19.096;2023-06-01T02:48:19;9.50;1.00
43185;DHT22;28803;52.308;19.096;2023-06-01T02:50:46;9.50;1.00
43185;DHT22;28803;52.308;19.096;2023-06-01T02:53:13;9.50;1.00
43185;DHT22;28803;52.308;19.096;2023-06-01T02:55:40;9.50;1.00
43185;DHT22;28803;52.308;19.096;2023-06-01T02:58:08;9.50;1.00
43185;DHT22;28803;52.308;19.096;2023-06-01T03:00:44;9.50;1.00
43185;DHT22;28803;52.308;19.096;2023-06-01T03:03:12;9.60;1.00
43185;DHT22;28803;52.308;19.096;2023-06-01T03:05:40;9.60;1.00
43185;DHT22;28803;52.308;19.096;2023-06-01T03:08:10;9.60;1.00
43185;DHT22;28803;52.308;19.096;2023-06-01T03:10:37;9.70;1.00
43185;DHT22;28803;52.308;19.096;2023-06-01T03:13:04;9.70;1.00
43185;DHT22;28803;52.308;19.096;2023-06-01T03:15:31;9.90;1.00
43185;DHT22;28803;52.308;19.096;2023-06-01T03:17:59;9.90;1.00
43185;DHT22;28803;52.308;19.096;2023-06-01T03:20:28;10.20;1.00
43185;DHT22;28803;52.308;19.096;2023-06-01T03:22:55;10.20;1.00
43185;DHT22;28803;52.308;19.096;2023-06-01T03:25:22;10.30;1.00
43185;DHT22;28803;52.308;19.096;2023-06-01T03:27:51;10.40;1.00
43185;DHT22;28803;52.308;19.096;2023-06-01T03:30:19;10.60;1.00
43185;DHT22;28803;52.308;19.096;2023-06-01T03:32:46;10.70;1.00
43185;DHT22;28803;52.308;19.096;2023-06-01T03:35:14;10.90;1.00
43185;DHT22;28803;52.308;19.096;2023-06-01T03:37:42;11.00;1.00
43185;DHT22;28803;52.308;19.096;2023-06-01T03:40:09;11.20;1.00
43185;DHT22;28803;52.308;19.096;2023-06-01T03:42:45;11.40;1.00
43185;DHT22;28803;52.308;19.096;2023-06-01T03:45:13;11.50;1.00
43185;DHT22;28803;52.308;19.096;2023-06-01T03:47:41;11.60;1.00
43185;DHT22;28803;52.308;19.096;2023-06-01T03:50:09;11.70;1.00
43185;DHT22;28803;52.308;19.096;2023-06-01T03:52:37;11.70;1.00
43185;DHT22;28803;52.308;19.096;2023-06-01T03:55:06;11.70;1.00
43185;DHT22;28803;52.308;19.096;2023-06-01T03:57:37;11.80;1.00
43185;DHT22;28803;52.308;19.096;2023-06-01T04:00:05;11.80;1.00
43185;DHT22;28803;52.308;19.096;2023-06-01T04:02:48;11.90;1.00
43185;DHT22;28803;52.308;19.096;2023-06-01T04:05:16;11.90;1.00
43185;DHT22;28803;52.308;19.096;2023-06-01T04:07:49;11.90;1.00
43185;DHT22;28803;52.308;19.096;2023-06-01T04:10:17;12.00;1.00
43185;DHT22;28803;52.308;19.096;2023-06-01T04:12:46;12.10;1.00
43185;DHT22;28803;52.308;19.096;2023-06-01T04:15:17;12.10;1.00
43185;DHT22;28803;52.308;19.096;2023-06-01T04:17:45;12.10;1.00
43185;DHT22;28803;52.308;19.096;2023-06-01T04:20:13;12.10;1.00
43185;DHT22;28803;52.308;19.096;2023-06-01T04:22:41;12.10;1.00
43185;DHT22;28803;52.308;19.096;2023-06-01T04:25:10;12.20;1.00
43185;DHT22;28803;52.308;19.096;2023-06-01T04:27:45;12.20;1.00
43185;DHT22;28803;52.308;19.096;2023-06-01T04:30:14;12.20;1.00
43185;DHT22;28803;52.308;19.096;2023-06-01T04:32:43;12.20;1.00
43185;DHT22;28803;52.308;19.096;2023-06-01T04:35:15;12.30;1.00
43185;DHT22;28803;52.308;19.096;2023-06-01T04:37:43;14.30;1.00
43185;DHT22;28803;52.308;19.096;2023-06-01T04:40:11;12.50;1.00
43185;DHT22;28803;52.308;19.096;2023-06-01T04:42:43;12.70;1.00
43185;DHT22;28803;52.308;19.096;2023-06-01T04:45:16;12.90;1.00
43185;DHT22;28803;52.308;19.096;2023-06-01T04:47:44;13.10;1.00
43185;DHT22;28803;52.308;19.096;2023-06-01T04:50:15;13.20;1.00
43185;DHT22;28803;52.308;19.096;2023-06-01T04:52:44;13.40;1.00
43185;DHT22;28803;52.308;19.096;2023-06-01T04:55:11;13.70;1.00
43185;DHT22;28803;52.308;19.096;2023-06-01T04:57:42;13.90;1.00
43185;DHT22;28803;52.308;19.096;2023-06-01T05:00:14;14.20;99.90
43185;DHT22;28803;52.308;19.096;2023-06-01T05:02:46;14.40;99.90
43185;DHT22;28803;52.308;19.096;2023-06-01T05:05:16;14.60;99.90
43185;DHT22;28803;52.308;19.096;2023-06-01T05:07:44;14.90;99.90
43185;DHT22;28803;52.308;19.096;2023-06-01T05:10:12;15.10;99.90
43185;DHT22;28803;52.308;19.096;2023-06-01T05:12:40;15.30;99.90
43185;DHT22;28803;52.308;19.096;2023-06-01T05:15:08;15.50;99.90
43185;DHT22;28803;52.308;19.096;2023-06-01T05:17:36;15.70;99.90
43185;DHT22;28803;52.308;19.096;2023-06-01T05:20:06;15.90;99.90
43185;DHT22;28803;52.308;19.096;2023-06-01T05:22:36;16.10;99.90
43185;DHT22;28803;52.308;19.096;2023-06-01T05:25:04;16.30;99.90
43185;DHT22;28803;52.308;19.096;2023-06-01T05:27:35;16.50;99.90
43185;DHT22;28803;52.308;19.096;2023-06-01T05:30:04;16.60;99.90
43185;DHT22;28803;52.308;19.096;2023-06-01T05:32:32;16.80;99.90
43185;DHT22;28803;52.308;19.096;2023-06-01T05:35:00;17.00;99.90
43185;DHT22;28803;52.308;19.096;2023-06-01T05:37:27;17.20;1.00
43185;DHT22;28803;52.308;19.096;2023-06-01T05:39:54;17.40;1.00
43185;DHT22;28803;52.308;19.096;2023-06-01T05:42:22;17.50;1.00
43185;DHT22;28803;52.308;19.096;2023-06-01T05:44:49;17.70;83.90
43185;DHT22;28803;52.308;19.096;2023-06-01T05:47:16;17.80;87.80
43185;DHT22;28803;52.308;19.096;2023-06-01T05:49:43;18.10;88.20
43185;DHT22;28803;52.308;19.096;2023-06-01T05:52:11;18.30;87.60
43185;DHT22;28803;52.308;19.096;2023-06-01T05:54:40;18.40;86.80
43185;DHT22;28803;52.308;19.096;2023-06-01T05:57:08;18.60;86.40
43185;DHT22;28803;52.308;19.096;2023-06-01T05:59:35;18.80;86.70
43185;DHT22;28803;52.308;19.096;2023-06-01T06:02:03;19.00;84.10
43185;DHT22;28803;52.308;19.096;2023-06-01T06:04:30;19.10;82.60
43185;DHT22;28803;52.308;19.096;2023-06-01T06:06:58;19.30;82.80
43185;DHT22;28803;52.308;19.096;2023-06-01T06:09:25;19.40;84.00
43185;DHT22;28803;52.308;19.096;2023-06-01T06:11:53;19.70;82.10
43185;DHT22;28803;52.308;19.096;2023-06-01T06:14:20;19.80;80.60
43185;DHT22;28803;52.308;19.096;2023-06-01T06:16:48;20.00;80.00
43185;DHT22;28803;52.308;19.096;2023-06-01T06:19:15;20.30;78.60
43185;DHT22;28803;52.308;19.096;2023-06-01T06:21:44;20.60;78.60
43185;DHT22;28803;52.308;19.096;2023-06-01T06:24:11;20.90;77.90
43185;DHT22;28803;52.308;19.096;2023-06-01T06:26:39;21.20;77.40
43185;DHT22;28803;52.308;19.096;2023-06-01T06:29:06;21.50;74.20
43185;DHT22;28803;52.308;19.096;2023-06-01T06:31:34;21.80;74.00
43185;DHT22;28803;52.308;19.096;2023-06-01T06:34:01;22.10;70.90
43185;DHT22;28803;52.308;19.096;2023-06-01T06:36:28;22.50;70.80
43185;DHT22;28803;52.308;19.096;2023-06-01T06:38:56;23.00;71.40
43185;DHT22;28803;52.308;19.096;2023-06-01T06:41:23;23.60;68.20
43185;DHT22;28803;52.308;19.096;2023-06-01T06:43:51;24.10;67.90
43185;DHT22;28803;52.308;19.096;2023-06-01T06:46:18;24.70;66.60
43185;DHT22;28803;52.308;19.096;2023-06-01T06:48:45;25.10;63.30
43185;DHT22;28803;52.308;19.096;2023-06-01T06:51:13;25.70;63.00
43185;DHT22;28803;52.308;19.096;2023-06-01T06:53:40;26.30;61.40
43185;DHT22;28803;52.308;19.096;2023-06-01T06:56:08;26.60;59.50
43185;DHT22;28803;52.308;19.096;2023-06-01T06:58:35;27.00;58.90
43185;DHT22;28803;52.308;19.096;2023-06-01T07:01:03;27.40;58.80
43185;DHT22;28803;52.308;19.096;2023-06-01T07:03:32;30.80;58.50
43185;DHT22;28803;52.308;19.096;2023-06-01T07:06:00;28.00;56.70
43185;DHT22;28803;52.308;19.096;2023-06-01T07:08:28;28.40;55.70
43185;DHT22;28803;52.308;19.096;2023-06-01T07:10:56;28.90;55.00
43185;DHT22;28803;52.308;19.096;2023-06-01T07:13:24;29.50;53.70
43185;DHT22;28803;52.308;19.096;2023-06-01T07:15:55;30.00;53.70
43185;DHT22;28803;52.308;19.096;2023-06-01T07:18:22;30.50;52.90
43185;DHT22;28803;52.308;19.096;2023-06-01T07:20:52;30.80;50.80
43185;DHT22;28803;52.308;19.096;2023-06-01T07:23:19;30.70;51.20
43185;DHT22;28803;52.308;19.096;2023-06-01T07:25:47;31.00;51.00
43185;DHT22;28803;52.308;19.096;2023-06-01T07:28:14;31.30;49.90
43185;DHT22;28803;52.308;19.096;2023-06-01T07:30:42;31.70;49.50
43185;DHT22;28803;52.308;19.096;2023-06-01T07:33:09;32.00;48.80
43185;DHT22;28803;52.308;19.096;2023-06-01T07:35:38;32.00;48.00
43185;DHT22;28803;52.308;19.096;2023-06-01T07:38:05;32.10;47.80
43185;DHT22;28803;52.308;19.096;2023-06-01T07:40:34;32.20;46.70
43185;DHT22;28803;52.308;19.096;2023-06-01T07:43:02;32.10;46.10
43185;DHT22;28803;52.308;19.096;2023-06-01T07:45:29;32.10;46.30
43185;DHT22;28803;52.308;19.096;2023-06-01T07:47:57;32.10;46.10
43185;DHT22;28803;52.308;19.096;2023-06-01T07:50:24;32.30;46.00
43185;DHT22;28803;52.308;19.096;2023-06-01T07:52:55;32.70;45.70
43185;DHT22;28803;52.308;19.096;2023-06-01T07:55:23;32.90;43.70
43185;DHT22;28803;52.308;19.096;2023-06-01T07:57:51;32.90;43.60
43185;DHT22;28803;52.308;19.096;2023-06-01T08:00:19;32.90;43.40
43185;DHT22;28803;52.308;19.096;2023-06-01T08:02:46;33.20;43.60
43185;DHT22;28803;52.308;19.096;2023-06-01T08:05:14;33.50;43.10
43185;DHT22;28803;52.308;19.096;2023-06-01T08:07:45;33.80;43.00
43185;DHT22;28803;52.308;19.096;2023-06-01T08:10:13;34.00;43.30
43185;DHT22;28803;52.308;19.096;2023-06-01T08:12:41;34.40;42.10
43185;DHT22;28803;52.308;19.096;2023-06-01T08:15:12;35.00;42.60
43185;DHT22;28803;52.308;19.096;2023-06-01T08:17:39;35.30;42.20
43185;DHT22;28803;52.308;19.096;2023-06-01T08:20:08;35.50;42.50
43185;DHT22;28803;52.308;19.096;2023-06-01T08:22:38;35.70;42.40
43185;DHT22;28803;52.308;19.096;2023-06-01T08:25:07;36.00;40.30
43185;DHT22;28803;52.308;19.096;2023-06-01T08:27:35;36.30;41.10
43185;DHT22;28803;52.308;19.096;2023-06-01T08:30:04;36.30;39.60
43185;DHT22;28803;52.308;19.096;2023-06-01T08:32:31;36.40;39.90
43185;DHT22;28803;52.308;19.096;2023-06-01T08:35:00;36.70;39.80
43185;DHT22;28803;52.308;19.096;2023-06-01T08:37:27;36.90;38.60
43185;DHT22;28803;52.308;19.096;2023-06-01T08:39:55;36.80;39.00
43185;DHT22;28803;52.308;19.096;2023-06-01T08:42:30;36.50;38.60
43185;DHT22;28803;52.308;19.096;2023-06-01T08:44:59;36.50;39.60
43185;DHT22;28803;52.308;19.096;2023-06-01T08:47:31;36.90;39.00
43185;DHT22;28803;52.308;19.096;2023-06-01T08:49:59;37.50;39.10
43185;DHT22;28803;52.308;19.096;2023-06-01T08:52:28;37.90;38.00
43185;DHT22;28803;52.308;19.096;2023-06-01T08:55:00;38.20;38.50
43185;DHT22;28803;52.308;19.096;2023-06-01T08:57:30;38.30;37.30
43185;DHT22;28803;52.308;19.096;2023-06-01T08:59:58;37.90;38.20
43185;DHT22;28803;52.308;19.096;2023-06-01T09:02:26;37.80;37.40
43185;DHT22;28803;52.308;19.096;2023-06-01T09:04:58;37.60;37.10
43185;DHT22;28803;52.308;19.096;2023-06-01T09:07:26;37.60;37.30
43185;DHT22;28803;52.308;19.096;2023-06-01T09:09:53;37.80;38.40
43185;DHT22;28803;52.308;19.096;2023-06-01T09:12:21;38.00;37.10
43185;DHT22;28803;52.308;19.096;2023-06-01T09:15:11;38.50;36.90
43185;DHT22;28803;52.308;19.096;2023-06-01T09:17:39;39.30;37.10
43185;DHT22;28803;52.308;19.096;2023-06-01T09:20:12;39.60;36.30
43185;DHT22;28803;52.308;19.096;2023-06-01T09:22:40;39.40;36.00
43185;DHT22;28803;52.308;19.096;2023-06-01T09:25:08;39.40;36.60
43185;DHT22;28803;52.308;19.096;2023-06-01T09:27:48;39.80;36.40
43185;DHT22;28803;52.308;19.096;2023-06-01T09:30:19;39.80;36.10
43185;DHT22;28803;52.308;19.096;2023-06-01T09:32:47;39.90;35.80
43185;DHT22;28803;52.308;19.096;2023-06-01T09:35:57;39.40;34.50
43185;DHT22;28803;52.308;19.096;2023-06-01T09:38:25;39.40;36.10
43185;DHT22;28803;52.308;19.096;2023-06-01T09:41:02;39.60;35.70
43185;DHT22;28803;52.308;19.096;2023-06-01T09:43:32;39.80;35.80
43185;DHT22;28803;52.308;19.096;2023-06-01T09:46:07;40.00;34.70
43185;DHT22;28803;52.308;19.096;2023-06-01T09:48:35;39.80;35.20
43185;DHT22;28803;52.308;19.096;2023-06-01T09:51:03;39.50;35.00
43185;DHT22;28803;52.308;19.096;2023-06-01T09:53:43;39.90;35.00
43185;DHT22;28803;52.308;19.096;2023-06-01T09:56:11;39.90;34.50
43185;DHT22;28803;52.308;19.096;2023-06-01T09:58:38;39.10;33.70
43185;DHT22;28803;52.308;19.096;2023-06-01T10:01:08;38.90;34.40
43185;DHT22;28803;52.308;19.096;2023-06-01T10:03:41;39.10;35.00
43185;DHT22;28803;52.308;19.096;2023-06-01T10:06:13;39.00;35.20
43185;DHT22;28803;52.308;19.096;2023-06-01T10:08:44;39.30;34.40
43185;DHT22;28803;52.308;19.096;2023-06-01T10:11:12;39.50;34.10
43185;DHT22;28803;52.308;19.096;2023-06-01T10:13:40;39.70;34.50
43185;DHT22;28803;52.308;19.096;2023-06-01T10:16:08;39.80;34.40
43185;DHT22;28803;52.308;19.096;2023-06-01T10:18:36;39.90;34.30
43185;DHT22;28803;52.308;19.096;2023-06-01T10:21:04;39.40;34.50
43185;DHT22;28803;52.308;19.096;2023-06-01T10:23:34;39.40;34.10
43185;DHT22;28803;52.308;19.096;2023-06-01T10:26:11;39.20;34.00
43185;DHT22;28803;52.308;19.096;2023-06-01T10:28:40;39.00;34.30
43185;DHT22;28803;52.308;19.096;2023-06-01T10:31:33;39.10;34.20
43185;DHT22;28803;52.308;19.096;2023-06-01T10:34:01;39.70;36.50
43185;DHT22;28803;52.308;19.096;2023-06-01T10:39:28;40.20;33.90
43185;DHT22;28803;52.308;19.096;2023-06-01T10:44:49;40.20;34.10
43185;DHT22;28803;52.308;19.096;2023-06-01T10:57:44;41.00;33.70
43185;DHT22;28803;52.308;19.096;2023-06-01T11:02:54;40.60;34.10
43185;DHT22;28803;52.308;19.096;2023-06-01T11:05:47;40.60;34.40
43185;DHT22;28803;52.308;19.096;2023-06-01T11:11:00;40.70;33.90
43185;DHT22;28803;52.308;19.096;2023-06-01T11:13:32;40.70;34.20
43185;DHT22;28803;52.308;19.096;2023-06-01T11:19:04;40.70;34.50
43185;DHT22;28803;52.308;19.096;2023-06-01T11:21:34;40.70;34.30
43185;DHT22;28803;52.308;19.096;2023-06-01T11:24:13;40.30;34.30
43185;DHT22;28803;52.308;19.096;2023-06-01T11:26:50;40.10;34.50
43185;DHT22;28803;52.308;19.096;2023-06-01T11:29:22;40.10;35.30
43185;DHT22;28803;52.308;19.096;2023-06-01T11:31:53;40.30;35.50
43185;DHT22;28803;52.308;19.096;2023-06-01T11:37:00;40.40;35.00
43185;DHT22;28803;52.308;19.096;2023-06-01T11:39:29;40.40;34.00
43185;DHT22;28803;52.308;19.096;2023-06-01T11:42:05;40.00;34.70
43185;DHT22;28803;52.308;19.096;2023-06-01T11:44:34;39.40;33.80
43185;DHT22;28803;52.308;19.096;2023-06-01T11:47:02;39.50;35.20
43185;DHT22;28803;52.308;19.096;2023-06-01T11:49:31;40.10;35.30
43185;DHT22;28803;52.308;19.096;2023-06-01T11:51:58;40.60;34.70
43185;DHT22;28803;52.308;19.096;2023-06-01T11:54:26;41.10;35.70
43185;DHT22;28803;52.308;19.096;2023-06-01T11:56:56;41.00;34.50
43185;DHT22;28803;52.308;19.096;2023-06-01T11:59:25;40.20;35.20
43185;DHT22;28803;52.308;19.096;2023-06-01T12:01:55;40.10;35.80
43185;DHT22;28803;52.308;19.096;2023-06-01T12:04:23;40.00;35.70
43185;DHT22;28803;52.308;19.096;2023-06-01T12:07:03;40.10;35.70
43185;DHT22;28803;52.308;19.096;2023-06-01T12:09:34;40.70;35.80
43185;DHT22;28803;52.308;19.096;2023-06-01T12:12:02;41.30;35.60
43185;DHT22;28803;52.308;19.096;2023-06-01T12:14:29;41.30;34.30
43185;DHT22;28803;52.308;19.096;2023-06-01T12:16:58;40.80;35.10
43185;DHT22;28803;52.308;19.096;2023-06-01T12:19:26;40.30;35.00
43185;DHT22;28803;52.308;19.096;2023-06-01T12:21:56;40.10;35.70
43185;DHT22;28803;52.308;19.096;2023-06-01T12:24:28;40.30;36.50
43185;DHT22;28803;52.308;19.096;2023-06-01T12:26:56;40.30;36.50
43185;DHT22;28803;52.308;19.096;2023-06-01T12:29:44;40.10;37.10
43185;DHT22;28803;52.308;19.096;2023-06-01T12:32:13;40.40;36.80
43185;DHT22;28803;52.308;19.096;2023-06-01T12:34:42;40.60;38.20
43185;DHT22;28803;52.308;19.096;2023-06-01T12:37:16;40.70;37.30
43185;DHT22;28803;52.308;19.096;2023-06-01T12:39:54;41.00;37.00
43185;DHT22;28803;52.308;19.096;2023-06-01T12:42:39;40.30;36.60
43185;DHT22;28803;52.308;19.096;2023-06-01T12:45:08;40.50;36.50
43185;DHT22;28803;52.308;19.096;2023-06-01T12:47:39;40.40;36.50
43185;DHT22;28803;52.308;19.096;2023-06-01T12:50:09;40.10;36.00
43185;DHT22;28803;52.308;19.096;2023-06-01T12:52:38;40.50;36.20
43185;DHT22;28803;52.308;19.096;2023-06-01T12:55:06;39.90;35.80
43185;DHT22;28803;52.308;19.096;2023-06-01T12:57:35;39.60;36.60
43185;DHT22;28803;52.308;19.096;2023-06-01T13:00:04;40.10;37.20
43185;DHT22;28803;52.308;19.096;2023-06-01T13:02:32;40.40;36.80
43185;DHT22;28803;52.308;19.096;2023-06-01T13:05:01;40.30;36.50
43185;DHT22;28803;52.308;19.096;2023-06-01T13:07:28;40.70;36.40
43185;DHT22;28803;52.308;19.096;2023-06-01T13:09:56;40.80;35.50
43185;DHT22;28803;52.308;19.096;2023-06-01T13:12:26;40.20;35.50
43185;DHT22;28803;52.308;19.096;2023-06-01T13:14:55;40.30;35.80
43185;DHT22;28803;52.308;19.096;2023-06-01T13:17:24;40.10;35.60
43185;DHT22;28803;52.308;19.096;2023-06-01T13:19:54;39.30;35.80
43185;DHT22;28803;52.308;19.096;2023-06-01T13:22:21;38.50;36.50
43185;DHT22;28803;52.308;19.096;2023-06-01T13:24:49;37.80;37.10
43185;DHT22;28803;52.308;19.096;2023-06-01T13:27:31;36.40;36.80
43185;DHT22;28803;52.308;19.096;2023-06-01T13:29:58;34.70;39.00
43185;DHT22;28803;52.308;19.096;2023-06-01T13:32:26;34.50;40.20
43185;DHT22;28803;52.308;19.096;2023-06-01T13:34:54;34.80;39.90
43185;DHT22;28803;52.308;19.096;2023-06-01T13:37:22;35.10;39.40
43185;DHT22;28803;52.308;19.096;2023-06-01T13:39:50;35.60;38.80
43185;DHT22;28803;52.308;19.096;2023-06-01T13:42:18;36.20;38.80
43185;DHT22;28803;52.308;19.096;2023-06-01T13:44:47;37.30;37.50
43185;DHT22;28803;52.308;19.096;2023-06-01T13:47:15;37.90;37.60
43185;DHT22;28803;52.308;19.096;2023-06-01T13:49:43;37.60;37.30
43185;DHT22;28803;52.308;19.096;2023-06-01T13:52:11;37.20;37.60
43185;DHT22;28803;52.308;19.096;2023-06-01T13:54:39;37.60;37.80
43185;DHT22;28803;52.308;19.096;2023-06-01T13:57:07;37.90;38.10
43185;DHT22;28803;52.308;19.096;2023-06-01T13:59:35;38.50;37.80
43185;DHT22;28803;52.308;19.096;2023-06-01T14:02:04;38.50;37.30
43185;DHT22;28803;52.308;19.096;2023-06-01T14:04:32;38.50;38.20
43185;DHT22;28803;52.308;19.096;2023-06-01T14:06:59;38.50;37.00
43185;DHT22;28803;52.308;19.096;2023-06-01T14:09:27;38.70;37.50
43185;DHT22;28803;52.308;19.096;2023-06-01T14:11:54;38.60;37.30
43185;DHT22;28803;52.308;19.096;2023-06-01T14:14:22;38.70;37.10
43185;DHT22;28803;52.308;19.096;2023-06-01T14:16:49;39.00;36.40
43185;DHT22;28803;52.308;19.096;2023-06-01T14:19:17;38.20;37.10
43185;DHT22;28803;52.308;19.096;2023-06-01T14:21:44;37.50;38.60
43185;DHT22;28803;52.308;19.096;2023-06-01T14:24:12;37.00;38.80
43185;DHT22;28803;52.308;19.096;2023-06-01T14:26:39;36.60;38.40
43185;DHT22;28803;52.308;19.096;2023-06-01T14:29:07;36.30;39.50
43185;DHT22;28803;52.308;19.096;2023-06-01T14:31:35;36.00;39.10
43185;DHT22;28803;52.308;19.096;2023-06-01T14:34:02;36.10;39.40
43185;DHT22;28803;52.308;19.096;2023-06-01T14:36:30;36.20;40.00
43185;DHT22;28803;52.308;19.096;2023-06-01T14:39:14;36.50;40.00
43185;DHT22;28803;52.308;19.096;2023-06-01T14:41:41;36.60;39.80
43185;DHT22;28803;52.308;19.096;2023-06-01T14:44:12;36.40;40.40
43185;DHT22;28803;52.308;19.096;2023-06-01T14:46:39;36.20;40.60
43185;DHT22;28803;52.308;19.096;2023-06-01T14:49:08;35.90;41.40
43185;DHT22;28803;52.308;19.096;2023-06-01T14:51:36;35.70;42.30
43185;DHT22;28803;52.308;19.096;2023-06-01T14:54:03;36.10;42.50
43185;DHT22;28803;52.308;19.096;2023-06-01T14:56:31;35.80;42.50
43185;DHT22;28803;52.308;19.096;2023-06-01T14:58:58;35.40;42.00
43185;DHT22;28803;52.308;19.096;2023-06-01T15:01:26;34.10;43.70
43185;DHT22;28803;52.308;19.096;2023-06-01T15:03:53;32.80;45.20
43185;DHT22;28803;52.308;19.096;2023-06-01T15:06:21;31.60;46.50
43185;DHT22;28803;52.308;19.096;2023-06-01T15:08:48;30.40;48.30
43185;DHT22;28803;52.308;19.096;2023-06-01T15:11:15;29.40;49.60
43185;DHT22;28803;52.308;19.096;2023-06-01T15:13:43;28.70;50.90
43185;DHT22;28803;52.308;19.096;2023-06-01T15:16:10;28.00;52.40
43185;DHT22;28803;52.308;19.096;2023-06-01T15:18:38;27.40;54.10
43185;DHT22;28803;52.308;19.096;2023-06-01T15:21:05;26.80;54.20
43185;DHT22;28803;52.308;19.096;2023-06-01T15:23:33;26.50;55.30
43185;DHT22;28803;52.308;19.096;2023-06-01T15:26:00;26.40;55.10
43185;DHT22;28803;52.308;19.096;2023-06-01T15:28:27;26.00;55.50
43185;DHT22;28803;52.308;19.096;2023-06-01T15:30:54;25.90;57.00
43185;DHT22;28803;52.308;19.096;2023-06-01T15:33:22;25.80;55.10
43185;DHT22;28803;52.308;19.096;2023-06-01T15:35:50;25.50;54.60
43185;DHT22;28803;52.308;19.096;2023-06-01T15:38:18;25.30;54.40
43185;DHT22;28803;52.308;19.096;2023-06-01T15:40:46;25.10;54.50
43185;DHT22;28803;52.308;19.096;2023-06-01T15:43:13;24.90;54.80
43185;DHT22;28803;52.308;19.096;2023-06-01T15:45:40;24.70;55.30
43185;DHT22;28803;52.308;19.096;2023-06-01T15:48:08;24.60;55.70
43185;DHT22;28803;52.308;19.096;2023-06-01T15:50:36;24.30;56.10
43185;DHT22;28803;52.308;19.096;2023-06-01T15:53:06;24.30;56.80
43185;DHT22;28803;52.308;19.096;2023-06-01T15:55:33;24.20;56.70
43185;DHT22;28803;52.308;19.096;2023-06-01T15:58:01;24.20;57.10
43185;DHT22;28803;52.308;19.096;2023-06-01T16:00:28;24.20;56.40
43185;DHT22;28803;52.308;19.096;2023-06-01T16:02:55;24.20;57.00
43185;DHT22;28803;52.308;19.096;2023-06-01T16:05:22;24.10;55.70
43185;DHT22;28803;52.308;19.096;2023-06-01T16:07:50;24.10;56.50
43185;DHT22;28803;52.308;19.096;2023-06-01T16:10:17;24.00;56.70
43185;DHT22;28803;52.308;19.096;2023-06-01T16:12:45;24.00;56.10
43185;DHT22;28803;52.308;19.096;2023-06-01T16:15:12;23.90;56.80
43185;DHT22;28803;52.308;19.096;2023-06-01T16:17:40;23.80;56.10